sensor_id;sensor_type;location;lat;lon;timestamp;temperature;humidity
5200;DHT22;2619;47.868;11.892;2024-03-06T00:02:05;4.10;99.90
5200;DHT22;2619;47.868;11.892;2024-03-06T00:04:30;4.10;99.90
5200;DHT22;2619;47.868;11.892;2024-03-06T00:06:56;4.10;99.90
5200;DHT22;2619;47.868;11.892;2024-03-06T00:09:23;4.00;99.90
5200;DHT22;2619;47.868;11.892;2024-03-06T00:11:49;3.90;99.90
5200;DHT22;2619;47.868;11.892;2024-03-06T00:16:45;4.00;99.90
5200;DHT22;2619;47.868;11.892;2024-03-06T00:19:11;3.90;99.90
5200;DHT22;2619;47.868;11.892;2024-03-06T00:21:37;3.90;99.90
5200;DHT22;2619;47.868;11.892;2024-03-06T00:24:03;3.80;99.90
5200;DHT22;2619;47.868;11.892;2024-03-06T00:26:29;3.80;99.90
5200;DHT22;2619;47.868;11.892;2024-03-06T00:28:55;3.70;99.90
5200;DHT22;2619;47.868;11.892;2024-03-06T00:31:20;3.70;99.90
5200;DHT22;2619;47.868;11.892;2024-03-06T00:33:46;3.70;99.90
5200;DHT22;2619;47.868;11.892;2024-03-06T00:36:11;3.60;99.90
5200;DHT22;2619;47.868;11.892;2024-03-06T00:38:37;3.50;99.90
5200;DHT22;2619;47.868;11.892;2024-03-06T00:41:03;3.40;99.90
5200;DHT22;2619;47.868;11.892;2024-03-06T00:43:29;3.40;99.90
5200;DHT22;2619;47.868;11.892;2024-03-06T00:45:54;3.40;99.90
5200;DHT22;2619;47.868;11.892;2024-03-06T00:48:20;3.40;99.90
5200;DHT22;2619;47.868;11.892;2024-03-06T00:50:46;3.30;99.90
5200;DHT22;2619;47.868;11.892;2024-03-06T00:53:11;3.30;99.90
5200;DHT22;2619;47.868;11.892;2024-03-06T00:55:37;3.30;99.90
5200;DHT22;2619;47.868;11.892;2024-03-06T00:58:03;3.30;99.90
5200;DHT22;2619;47.868;11.892;2024-03-06T01:00:29;3.20;99.90
5200;DHT22;2619;47.868;11.892;2024-03-06T01:02:55;3.20;99.90
5200;DHT22;2619;47.868;11.892;2024-03-06T01:05:21;3.20;99.90
5200;DHT22;2619;47.868;11.892;2024-03-06T01:07:46;3.20;99.90
5200;DHT22;2619;47.868;11.892;2024-03-06T01:10:12;3.20;99.90
5200;DHT22;2619;47.868;11.892;2024-03-06T01:12:39;3.20;99.90
5200;DHT22;2619;47.868;11.892;2024-03-06T01:15:05;3.10;99.90
5200;DHT22;2619;47.868;11.892;2024-03-06T01:17:30;3.20;99.90
5200;DHT22;2619;47.868;11.892;2024-03-06T01:19:56;3.00;99.90
5200;DHT22;2619;47.868;11.892;2024-03-06T01:22:22;3.00;99.90
5200;DHT22;2619;47.868;11.892;2024-03-06T01:24:47;3.10;99.90
5200;DHT22;2619;47.868;11.892;2024-03-06T01:27:16;3.10;99.90
5200;DHT22;2619;47.868;11.892;2024-03-06T01:29:42;3.10;99.90
5200;DHT22;2619;47.868;11.892;2024-03-06T01:32:07;3.10;99.90
5200;DHT22;2619;47.868;11.892;2024-03-06T01:34:33;3.10;99.90
5200;DHT22;2619;47.868;11.892;2024-03-06T01:36:58;3.10;99.90
5200;DHT22;2619;47.868;11.892;2024-03-06T01:39:24;3.10;99.90
5200;DHT22;2619;47.868;11.892;2024-03-06T01:41:50;3.00;99.90
5200;DHT22;2619;47.868;11.892;2024-03-06T01:44:17;3.00;99.90
5200;DHT22;2619;47.868;11.892;2024-03-06T01:46:43;3.00;99.90
5200;DHT22;2619;47.868;11.892;2024-03-06T01:49:11;3.00;99.90
5200;DHT22;2619;47.868;11.892;2024-03-06T01:51:39;2.90;99.90
5200;DHT22;2619;47.868;11.892;2024-03-06T01:54:05;2.90;99.90
5200;DHT22;2619;47.868;11.892;2024-03-06T01:56:34;2.90;99.90
5200;DHT22;2619;47.868;11.892;2024-03-06T01:59:01;2.90;99.90
5200;DHT22;2619;47.868;11.892;2024-03-06T02:01:28;2.90;99.90
5200;DHT22;2619;47.868;11.892;2024-03-06T02:03:53;2.80;99.90
5200;DHT22;2619;47.868;11.892;2024-03-06T02:06:19;2.90;99.90
5200;DHT22;2619;47.868;11.892;2024-03-06T02:08:46;2.90;99.90
5200;DHT22;2619;47.868;11.892;2024-03-06T02:11:12;2.90;99.90
5200;DHT22;2619;47.868;11.892;2024-03-06T02:13:40;2.90;99.90
5200;DHT22;2619;47.868;11.892;2024-03-06T02:16:06;2.90;99.90
5200;DHT22;2619;47.868;11.892;2024-03-06T02:18:31;3.00;99.90
5200;DHT22;2619;47.868;11.892;2024-03-06T02:20:57;3.00;99.90
5200;DHT22;2619;47.868;11.892;2024-03-06T02:23:22;3.00;99.90
5200;DHT22;2619;47.868;11.892;2024-03-06T02:25:49;3.00;99.90
5200;DHT22;2619;47.868;11.892;2024-03-06T02:28:15;3.00;99.90
5200;DHT22;2619;47.868;11.892;2024-03-06T02:30:42;2.90;99.90
5200;DHT22;2619;47.868;11.892;2024-03-06T02:33:08;2.90;99.90
5200;DHT22;2619;47.868;11.892;2024-03-06T02:35:35;2.80;99.90
5200;DHT22;2619;47.868;11.892;2024-03-06T02:38:04;2.90;99.90
5200;DHT22;2619;47.868;11.892;2024-03-06T02:40:33;2.80;99.90
5200;DHT22;2619;47.868;11.892;2024-03-06T02:42:58;2.80;99.90
5200;DHT22;2619;47.868;11.892;2024-03-06T02:45:24;2.80;99.90
5200;DHT22;2619;47.868;11.892;2024-03-06T02:47:49;2.80;99.90
5200;DHT22;2619;47.868;11.892;2024-03-06T02:50:15;2.80;99.90
5200;DHT22;2619;47.868;11.892;2024-03-06T02:52:41;2.80;99.90
5200;DHT22;2619;47.868;11.892;2024-03-06T02:55:07;2.80;99.90
5200;DHT22;2619;47.868;11.892;2024-03-06T02:57:32;2.80;99.90
5200;DHT22;2619;47.868;11.892;2024-03-06T02:59:59;2.80;99.90
5200;DHT22;2619;47.868;11.892;2024-03-06T03:02:25;2.80;99.90
5200;DHT22;2619;47.868;11.892;2024-03-06T03:04:51;2.80;99.90
5200;DHT22;2619;47.868;11.892;2024-03-06T03:07:18;2.80;99.90
5200;DHT22;2619;47.868;11.892;2024-03-06T03:09:45;2.80;99.90
5200;DHT22;2619;47.868;11.892;2024-03-06T03:12:10;2.80;99.90
5200;DHT22;2619;47.868;11.892;2024-03-06T03:14:37;2.80;99.90
5200;DHT22;2619;47.868;11.892;2024-03-06T03:17:03;2.80;99.90
5200;DHT22;2619;47.868;11.892;2024-03-06T03:19:29;2.80;99.90
5200;DHT22;2619;47.868;11.892;2024-03-06T03:21:55;2.80;99.90
5200;DHT22;2619;47.868;11.892;2024-03-06T03:24:20;2.80;99.90
5200;DHT22;2619;47.868;11.892;2024-03-06T03:26:47;2.80;99.90
5200;DHT22;2619;47.868;11.892;2024-03-06T03:29:12;2.80;99.90
5200;DHT22;2619;47.868;11.892;2024-03-06T03:31:38;2.80;99.90
5200;DHT22;2619;47.868;11.892;2024-03-06T03:34:05;2.70;99.90
5200;DHT22;2619;47.868;11.892;2024-03-06T03:36:30;2.80;99.90
5200;DHT22;2619;47.868;11.892;2024-03-06T03:38:56;2.70;99.90
5200;DHT22;2619;47.868;11.892;2024-03-06T03:41:22;2.70;99.90
5200;DHT22;2619;47.868;11.892;2024-03-06T03:43:48;2.80;99.90
5200;DHT22;2619;47.868;11.892;2024-03-06T03:46:14;2.70;99.90
5200;DHT22;2619;47.868;11.892;2024-03-06T03:48:40;2.70;99.90
5200;DHT22;2619;47.868;11.892;2024-03-06T03:51:06;2.70;99.90
5200;DHT22;2619;47.868;11.892;2024-03-06T03:53:32;2.70;99.90
5200;DHT22;2619;47.868;11.892;2024-03-06T03:56:02;2.70;99.90
5200;DHT22;2619;47.868;11.892;2024-03-06T03:58:28;2.70;99.90
5200;DHT22;2619;47.868;11.892;2024-03-06T04:00:54;2.70;99.90
5200;DHT22;2619;47.868;11.892;2024-03-06T04:03:21;2.70;99.90
5200;DHT22;2619;47.868;11.892;2024-03-06T04:05:48;2.80;99.90
5200;DHT22;2619;47.868;11.892;2024-03-06T04:08:13;2.80;99.90
5200;DHT22;2619;47.868;11.892;2024-03-06T04:10:39;2.70;99.90
5200;DHT22;2619;47.868;11.892;2024-03-06T04:13:05;2.70;99.90
5200;DHT22;2619;47.868;11.892;2024-03-06T04:15:31;2.70;99.90
5200;DHT22;2619;47.868;11.892;2024-03-06T04:17:57;2.60;99.90
5200;DHT22;2619;47.868;11.892;2024-03-06T04:20:23;2.70;99.90
5200;DHT22;2619;47.868;11.892;2024-03-06T04:22:49;2.70;99.90
5200;DHT22;2619;47.868;11.892;2024-03-06T04:25:16;2.70;99.90
5200;DHT22;2619;47.868;11.892;2024-03-06T04:27:42;2.70;99.90
5200;DHT22;2619;47.868;11.892;2024-03-06T04:30:08;2.60;99.90
5200;DHT22;2619;47.868;11.892;2024-03-06T04:32:34;2.70;99.90
5200;DHT22;2619;47.868;11.892;2024-03-06T04:35:00;2.60;99.90
5200;DHT22;2619;47.868;11.892;2024-03-06T04:37:25;2.60;99.90
5200;DHT22;2619;47.868;11.892;2024-03-06T04:39:52;2.70;99.90
5200;DHT22;2619;47.868;11.892;2024-03-06T04:42:18;2.70;99.90
5200;DHT22;2619;47.868;11.892;2024-03-06T04:44:45;2.60;99.90
5200;DHT22;2619;47.868;11.892;2024-03-06T04:47:11;2.60;99.90
5200;DHT22;2619;47.868;11.892;2024-03-06T04:49:36;2.60;99.90
5200;DHT22;2619;47.868;11.892;2024-03-06T04:52:02;2.70;99.90
5200;DHT22;2619;47.868;11.892;2024-03-06T04:54:28;2.70;99.90
5200;DHT22;2619;47.868;11.892;2024-03-06T04:56:54;2.60;99.90
5200;DHT22;2619;47.868;11.892;2024-03-06T04:59:20;2.70;99.90
5200;DHT22;2619;47.868;11.892;2024-03-06T05:01:46;2.70;99.90
5200;DHT22;2619;47.868;11.892;2024-03-06T05:04:11;2.70;99.90
5200;DHT22;2619;47.868;11.892;2024-03-06T05:06:37;2.70;99.90
5200;DHT22;2619;47.868;11.892;2024-03-06T05:09:03;2.70;99.90
5200;DHT22;2619;47.868;11.892;2024-03-06T05:11:29;2.70;99.90
5200;DHT22;2619;47.868;11.892;2024-03-06T05:13:57;2.80;99.90
5200;DHT22;2619;47.868;11.892;2024-03-06T05:16:23;2.80;99.90
5200;DHT22;2619;47.868;11.892;2024-03-06T05:18:49;2.80;99.90
5200;DHT22;2619;47.868;11.892;2024-03-06T05:21:15;2.80;99.90
5200;DHT22;2619;47.868;11.892;2024-03-06T05:23:41;2.80;99.90
5200;DHT22;2619;47.868;11.892;2024-03-06T05:26:06;2.80;99.90
5200;DHT22;2619;47.868;11.892;2024-03-06T05:28:32;2.80;99.90
5200;DHT22;2619;47.868;11.892;2024-03-06T05:30:58;2.80;99.90
5200;DHT22;2619;47.868;11.892;2024-03-06T05:33:26;2.80;99.90
5200;DHT22;2619;47.868;11.892;2024-03-06T05:35:53;2.80;99.90
5200;DHT22;2619;47.868;11.892;2024-03-06T05:38:19;2.80;99.90
5200;DHT22;2619;47.868;11.892;2024-03-06T05:40:44;2.80;99.90
5200;DHT22;2619;47.868;11.892;2024-03-06T05:43:10;2.70;99.90
5200;DHT22;2619;47.868;11.892;2024-03-06T05:45:36;2.80;99.90
5200;DHT22;2619;47.868;11.892;2024-03-06T05:48:02;2.70;99.90
5200;DHT22;2619;47.868;11.892;2024-03-06T05:50:29;2.70;99.90
5200;DHT22;2619;47.868;11.892;2024-03-06T05:52:57;2.70;99.90
5200;DHT22;2619;47.868;11.892;2024-03-06T05:55:23;2.70;99.90
5200;DHT22;2619;47.868;11.892;2024-03-06T05:57:48;2.70;99.90
5200;DHT22;2619;47.868;11.892;2024-03-06T06:00:15;2.70;99.90
5200;DHT22;2619;47.868;11.892;2024-03-06T06:02:43;2.70;99.90
5200;DHT22;2619;47.868;11.892;2024-03-06T06:05:10;2.70;99.90
5200;DHT22;2619;47.868;11.892;2024-03-06T06:07:35;2.70;99.90
5200;DHT22;2619;47.868;11.892;2024-03-06T06:10:04;2.70;99.90
5200;DHT22;2619;47.868;11.892;2024-03-06T06:12:31;2.70;99.90
5200;DHT22;2619;47.868;11.892;2024-03-06T06:14:57;2.70;99.90
5200;DHT22;2619;47.868;11.892;2024-03-06T06:17:22;2.80;99.90
5200;DHT22;2619;47.868;11.892;2024-03-06T06:19:48;2.70;99.90
5200;DHT22;2619;47.868;11.892;2024-03-06T06:22:13;2.70;99.90
5200;DHT22;2619;47.868;11.892;2024-03-06T06:24:39;2.70;99.90
5200;DHT22;2619;47.868;11.892;2024-03-06T06:27:06;2.80;99.90
5200;DHT22;2619;47.868;11.892;2024-03-06T06:29:31;2.80;99.90
5200;DHT22;2619;47.868;11.892;2024-03-06T06:31:57;2.80;99.90
5200;DHT22;2619;47.868;11.892;2024-03-06T06:34:23;2.80;99.90
5200;DHT22;2619;47.868;11.892;2024-03-06T06:36:50;2.80;99.90
5200;DHT22;2619;47.868;11.892;2024-03-06T06:39:18;2.80;99.90
5200;DHT22;2619;47.868;11.892;2024-03-06T06:41:43;2.80;99.90
5200;DHT22;2619;47.868;11.892;2024-03-06T06:44:09;2.80;99.90
5200;DHT22;2619;47.868;11.892;2024-03-06T06:46:34;2.80;99.90
5200;DHT22;2619;47.868;11.892;2024-03-06T06:49:00;2.80;99.90
5200;DHT22;2619;47.868;11.892;2024-03-06T06:51:25;2.80;99.90
5200;DHT22;2619;47.868;11.892;2024-03-06T06:53:51;2.70;99.90
5200;DHT22;2619;47.868;11.892;2024-03-06T06:56:16;2.80;99.90
5200;DHT22;2619;47.868;11.892;2024-03-06T06:58:42;2.80;99.90
5200;DHT22;2619;47.868;11.892;2024-03-06T07:01:09;2.80;99.90
5200;DHT22;2619;47.868;11.892;2024-03-06T07:03:35;2.80;99.90
5200;DHT22;2619;47.868;11.892;2024-03-06T07:06:01;2.90;99.90
5200;DHT22;2619;47.868;11.892;2024-03-06T07:08:28;2.90;99.90
5200;DHT22;2619;47.868;11.892;2024-03-06T07:10:54;2.90;99.90
5200;DHT22;2619;47.868;11.892;2024-03-06T07:13:20;2.90;99.90
5200;DHT22;2619;47.868;11.892;2024-03-06T07:15:46;3.00;99.90
5200;DHT22;2619;47.868;11.892;2024-03-06T07:18:11;2.90;99.90
5200;DHT22;2619;47.868;11.892;2024-03-06T07:20:39;2.90;99.90
5200;DHT22;2619;47.868;11.892;2024-03-06T07:23:05;2.90;99.90
5200;DHT22;2619;47.868;11.892;2024-03-06T07:25:30;3.00;99.90
5200;DHT22;2619;47.868;11.892;2024-03-06T07:27:56;3.00;99.90
5200;DHT22;2619;47.868;11.892;2024-03-06T07:30:21;3.00;99.90
5200;DHT22;2619;47.868;11.892;2024-03-06T07:32:47;3.00;99.90
5200;DHT22;2619;47.868;11.892;2024-03-06T07:35:13;2.90;99.90
5200;DHT22;2619;47.868;11.892;2024-03-06T07:37:39;2.90;99.90
5200;DHT22;2619;47.868;11.892;2024-03-06T07:40:06;2.90;99.90
5200;DHT22;2619;47.868;11.892;2024-03-06T07:42:32;2.90;99.90
5200;DHT22;2619;47.868;11.892;2024-03-06T07:44:58;2.80;99.90
5200;DHT22;2619;47.868;11.892;2024-03-06T07:47:24;2.90;99.90
5200;DHT22;2619;47.868;11.892;2024-03-06T07:49:50;2.90;99.90
5200;DHT22;2619;47.868;11.892;2024-03-06T07:52:16;2.90;99.90
5200;DHT22;2619;47.868;11.892;2024-03-06T07:54:41;2.90;99.90
5200;DHT22;2619;47.868;11.892;2024-03-06T07:57:07;3.00;99.90
5200;DHT22;2619;47.868;11.892;2024-03-06T07:59:32;3.10;99.90
5200;DHT22;2619;47.868;11.892;2024-03-06T08:01:58;3.10;99.90
5200;DHT22;2619;47.868;11.892;2024-03-06T08:04:23;3.10;99.90
5200;DHT22;2619;47.868;11.892;2024-03-06T08:06:49;3.10;99.90
5200;DHT22;2619;47.868;11.892;2024-03-06T08:09:15;3.10;99.90
5200;DHT22;2619;47.868;11.892;2024-03-06T08:11:42;3.10;99.90
5200;DHT22;2619;47.868;11.892;2024-03-06T08:14:08;3.00;99.90
5200;DHT22;2619;47.868;11.892;2024-03-06T08:16:33;3.10;99.90
5200;DHT22;2619;47.868;11.892;2024-03-06T08:18:59;3.10;99.90
5200;DHT22;2619;47.868;11.892;2024-03-06T08:21:25;3.10;99.90
5200;DHT22;2619;47.868;11.892;2024-03-06T08:23:51;3.20;99.90
5200;DHT22;2619;47.868;11.892;2024-03-06T08:26:18;3.20;99.90
5200;DHT22;2619;47.868;11.892;2024-03-06T08:28:43;3.30;99.90
5200;DHT22;2619;47.868;11.892;2024-03-06T08:31:09;3.30;99.90
5200;DHT22;2619;47.868;11.892;2024-03-06T08:33:34;3.40;99.90
5200;DHT22;2619;47.868;11.892;2024-03-06T08:36:00;3.40;99.90
5200;DHT22;2619;47.868;11.892;2024-03-06T08:38:25;3.50;99.90
5200;DHT22;2619;47.868;11.892;2024-03-06T08:40:51;3.50;99.90
5200;DHT22;2619;47.868;11.892;2024-03-06T08:43:17;3.50;99.90
5200;DHT22;2619;47.868;11.892;2024-03-06T08:45:44;3.50;99.90
5200;DHT22;2619;47.868;11.892;2024-03-06T08:48:10;3.50;99.90
5200;DHT22;2619;47.868;11.892;2024-03-06T08:50:37;3.60;99.90
5200;DHT22;2619;47.868;11.892;2024-03-06T08:53:02;3.60;99.90
5200;DHT22;2619;47.868;11.892;2024-03-06T08:55:28;3.60;99.90
5200;DHT22;2619;47.868;11.892;2024-03-06T08:57:54;3.60;99.90
5200;DHT22;2619;47.868;11.892;2024-03-06T09:00:19;3.60;99.90
5200;DHT22;2619;47.868;11.892;2024-03-06T09:02:45;3.70;99.90
5200;DHT22;2619;47.868;11.892;2024-03-06T09:05:12;3.70;99.90
5200;DHT22;2619;47.868;11.892;2024-03-06T09:07:38;3.70;99.90
5200;DHT22;2619;47.868;11.892;2024-03-06T09:10:09;3.80;99.90
5200;DHT22;2619;47.868;11.892;2024-03-06T09:12:35;3.90;99.90
5200;DHT22;2619;47.868;11.892;2024-03-06T09:15:02;3.80;99.90
5200;DHT22;2619;47.868;11.892;2024-03-06T09:17:28;3.90;99.90
5200;DHT22;2619;47.868;11.892;2024-03-06T09:19:55;4.00;99.90
5200;DHT22;2619;47.868;11.892;2024-03-06T09:22:20;3.90;99.90
5200;DHT22;2619;47.868;11.892;2024-03-06T09:24:46;3.80;99.90
5200;DHT22;2619;47.868;11.892;2024-03-06T09:27:14;3.80;99.90
5200;DHT22;2619;47.868;11.892;2024-03-06T09:29:40;3.90;99.90
5200;DHT22;2619;47.868;11.892;2024-03-06T09:32:06;3.80;99.90
5200;DHT22;2619;47.868;11.892;2024-03-06T09:34:31;3.80;99.90
5200;DHT22;2619;47.868;11.892;2024-03-06T09:36:57;3.90;99.90
5200;DHT22;2619;47.868;11.892;2024-03-06T09:39:22;3.90;99.90
5200;DHT22;2619;47.868;11.892;2024-03-06T09:41:49;3.80;99.90
5200;DHT22;2619;47.868;11.892;2024-03-06T09:44:16;3.80;99.90
5200;DHT22;2619;47.868;11.892;2024-03-06T09:46:45;3.90;99.90
5200;DHT22;2619;47.868;11.892;2024-03-06T09:49:13;3.90;99.90
5200;DHT22;2619;47.868;11.892;2024-03-06T09:51:44;3.90;99.90
5200;DHT22;2619;47.868;11.892;2024-03-06T09:54:13;3.90;99.90
5200;DHT22;2619;47.868;11.892;2024-03-06T09:56:46;4.00;99.90
5200;DHT22;2619;47.868;11.892;2024-03-06T09:59:12;4.00;99.90
5200;DHT22;2619;47.868;11.892;2024-03-06T10:01:41;4.10;99.90
5200;DHT22;2619;47.868;11.892;2024-03-06T10:04:37;4.10;99.90
5200;DHT22;2619;47.868;11.892;2024-03-06T10:07:03;4.10;99.90
5200;DHT22;2619;47.868;11.892;2024-03-06T10:09:31;4.20;99.90
5200;DHT22;2619;47.868;11.892;2024-03-06T10:11:58;4.30;99.90
5200;DHT22;2619;47.868;11.892;2024-03-06T10:14:24;4.20;99.90
5200;DHT22;2619;47.868;11.892;2024-03-06T10:16:58;4.40;99.90
5200;DHT22;2619;47.868;11.892;2024-03-06T10:19:25;4.30;99.90
5200;DHT22;2619;47.868;11.892;2024-03-06T10:21:53;4.50;99.90
5200;DHT22;2619;47.868;11.892;2024-03-06T10:26:50;4.40;99.90
5200;DHT22;2619;47.868;11.892;2024-03-06T10:29:17;4.40;99.90
5200;DHT22;2619;47.868;11.892;2024-03-06T10:31:57;4.40;99.90
5200;DHT22;2619;47.868;11.892;2024-03-06T10:34:24;4.50;99.90
5200;DHT22;2619;47.868;11.892;2024-03-06T10:36:58;4.50;99.90
5200;DHT22;2619;47.868;11.892;2024-03-06T10:39:25;4.50;99.90
5200;DHT22;2619;47.868;11.892;2024-03-06T10:41:55;4.50;99.90
5200;DHT22;2619;47.868;11.892;2024-03-06T10:44:22;4.50;99.90
5200;DHT22;2619;47.868;11.892;2024-03-06T10:46:55;4.40;99.90
5200;DHT22;2619;47.868;11.892;2024-03-06T10:49:23;4.40;99.90
5200;DHT22;2619;47.868;11.892;2024-03-06T10:51:50;4.40;99.90
5200;DHT22;2619;47.868;11.892;2024-03-06T10:54:16;4.40;99.90
5200;DHT22;2619;47.868;11.892;2024-03-06T10:56:42;4.40;99.90
5200;DHT22;2619;47.868;11.892;2024-03-06T10:59:10;4.40;99.90
5200;DHT22;2619;47.868;11.892;2024-03-06T11:01:39;4.40;99.90
5200;DHT22;2619;47.868;11.892;2024-03-06T11:04:05;4.30;99.90
5200;DHT22;2619;47.868;11.892;2024-03-06T11:06:31;4.40;99.90
5200;DHT22;2619;47.868;11.892;2024-03-06T11:08:58;4.40;99.90
5200;DHT22;2619;47.868;11.892;2024-03-06T11:11:25;4.30;99.90
5200;DHT22;2619;47.868;11.892;2024-03-06T11:13:54;4.30;99.90
5200;DHT22;2619;47.868;11.892;2024-03-06T11:16:30;4.40;99.90
5200;DHT22;2619;47.868;11.892;2024-03-06T11:19:05;4.40;99.90
5200;DHT22;2619;47.868;11.892;2024-03-06T11:21:32;4.40;99.90
5200;DHT22;2619;47.868;11.892;2024-03-06T11:24:15;4.50;99.90
5200;DHT22;2619;47.868;11.892;2024-03-06T11:26:50;4.40;99.90
5200;DHT22;2619;47.868;11.892;2024-03-06T11:29:17;4.50;99.90
5200;DHT22;2619;47.868;11.892;2024-03-06T11:32:03;4.30;99.90
5200;DHT22;2619;47.868;11.892;2024-03-06T11:34:29;4.30;99.90
5200;DHT22;2619;47.868;11.892;2024-03-06T11:36:58;4.30;99.90
5200;DHT22;2619;47.868;11.892;2024-03-06T11:39:24;4.30;99.90
5200;DHT22;2619;47.868;11.892;2024-03-06T11:41:53;4.20;99.90
5200;DHT22;2619;47.868;11.892;2024-03-06T11:44:22;4.20;99.90
5200;DHT22;2619;47.868;11.892;2024-03-06T11:46:59;4.20;99.90
5200;DHT22;2619;47.868;11.892;2024-03-06T11:49:32;4.20;99.90
5200;DHT22;2619;47.868;11.892;2024-03-06T11:52:07;4.10;99.90
5200;DHT22;2619;47.868;11.892;2024-03-06T11:54:34;4.20;99.90
5200;DHT22;2619;47.868;11.892;2024-03-06T11:57:01;4.30;99.90
5200;DHT22;2619;47.868;11.892;2024-03-06T11:59:29;4.30;99.90
5200;DHT22;2619;47.868;11.892;2024-03-06T12:01:56;4.30;99.90
5200;DHT22;2619;47.868;11.892;2024-03-06T12:04:22;4.20;99.90
5200;DHT22;2619;47.868;11.892;2024-03-06T12:06:48;4.20;99.90
5200;DHT22;2619;47.868;11.892;2024-03-06T12:09:14;4.20;99.90
5200;DHT22;2619;47.868;11.892;2024-03-06T12:11:41;4.30;99.90
5200;DHT22;2619;47.868;11.892;2024-03-06T12:14:13;4.50;99.90
5200;DHT22;2619;47.868;11.892;2024-03-06T12:16:39;4.40;99.90
5200;DHT22;2619;47.868;11.892;2024-03-06T12:19:05;4.40;99.90
5200;DHT22;2619;47.868;11.892;2024-03-06T12:21:31;4.30;99.90
5200;DHT22;2619;47.868;11.892;2024-03-06T12:24:04;4.20;99.90
5200;DHT22;2619;47.868;11.892;2024-03-06T12:26:30;4.20;99.90
5200;DHT22;2619;47.868;11.892;2024-03-06T12:29:09;4.10;99.90
5200;DHT22;2619;47.868;11.892;2024-03-06T12:31:37;4.00;99.90
5200;DHT22;2619;47.868;11.892;2024-03-06T12:34:04;4.00;99.90
5200;DHT22;2619;47.868;11.892;2024-03-06T12:36:30;4.00;99.90
5200;DHT22;2619;47.868;11.892;2024-03-06T12:38:59;4.10;99.90
5200;DHT22;2619;47.868;11.892;2024-03-06T12:41:25;4.20;99.90
5200;DHT22;2619;47.868;11.892;2024-03-06T12:43:52;4.10;99.90
5200;DHT22;2619;47.868;11.892;2024-03-06T12:46:18;4.00;99.90
5200;DHT22;2619;47.868;11.892;2024-03-06T12:48:44;4.00;99.90
5200;DHT22;2619;47.868;11.892;2024-03-06T12:51:10;4.10;99.90
5200;DHT22;2619;47.868;11.892;2024-03-06T12:53:35;4.20;99.90
5200;DHT22;2619;47.868;11.892;2024-03-06T12:56:01;4.20;99.90
5200;DHT22;2619;47.868;11.892;2024-03-06T12:58:27;4.30;99.90
5200;DHT22;2619;47.868;11.892;2024-03-06T13:00:53;4.10;99.90
5200;DHT22;2619;47.868;11.892;2024-03-06T13:03:20;4.00;99.90
5200;DHT22;2619;47.868;11.892;2024-03-06T13:05:45;3.90;99.90
5200;DHT22;2619;47.868;11.892;2024-03-06T13:08:12;3.80;99.90
5200;DHT22;2619;47.868;11.892;2024-03-06T13:10:40;3.80;99.90
5200;DHT22;2619;47.868;11.892;2024-03-06T13:13:05;3.70;99.90
5200;DHT22;2619;47.868;11.892;2024-03-06T13:15:32;3.80;99.90
5200;DHT22;2619;47.868;11.892;2024-03-06T13:18:00;3.80;99.90
5200;DHT22;2619;47.868;11.892;2024-03-06T13:20:29;3.80;99.90
5200;DHT22;2619;47.868;11.892;2024-03-06T13:22:54;3.70;99.90
5200;DHT22;2619;47.868;11.892;2024-03-06T13:25:20;3.60;99.90
5200;DHT22;2619;47.868;11.892;2024-03-06T13:27:46;3.50;99.90
5200;DHT22;2619;47.868;11.892;2024-03-06T13:30:12;3.50;99.90
5200;DHT22;2619;47.868;11.892;2024-03-06T13:32:38;3.50;99.90
5200;DHT22;2619;47.868;11.892;2024-03-06T13:35:04;3.60;99.90
5200;DHT22;2619;47.868;11.892;2024-03-06T13:37:32;3.60;99.90
5200;DHT22;2619;47.868;11.892;2024-03-06T13:39:57;3.70;99.90
5200;DHT22;2619;47.868;11.892;2024-03-06T13:42:27;3.70;99.90
5200;DHT22;2619;47.868;11.892;2024-03-06T13:44:52;3.60;99.90
5200;DHT22;2619;47.868;11.892;2024-03-06T13:47:19;3.50;99.90
5200;DHT22;2619;47.868;11.892;2024-03-06T13:49:44;3.50;99.90
5200;DHT22;2619;47.868;11.892;2024-03-06T13:52:10;3.50;99.90
5200;DHT22;2619;47.868;11.892;2024-03-06T13:54:40;3.50;99.90
5200;DHT22;2619;47.868;11.892;2024-03-06T13:57:07;3.60;99.90
5200;DHT22;2619;47.868;11.892;2024-03-06T13:59:33;3.70;99.90
5200;DHT22;2619;47.868;11.892;2024-03-06T14:02:00;3.70;99.90
5200;DHT22;2619;47.868;11.892;2024-03-06T14:04:26;3.80;99.90
5200;DHT22;2619;47.868;11.892;2024-03-06T14:06:52;3.70;99.90
5200;DHT22;2619;47.868;11.892;2024-03-06T14:09:17;3.80;99.90
5200;DHT22;2619;47.868;11.892;2024-03-06T14:11:43;3.70;99.90
5200;DHT22;2619;47.868;11.892;2024-03-06T14:14:09;3.80;99.90
5200;DHT22;2619;47.868;11.892;2024-03-06T14:16:35;3.80;99.90
5200;DHT22;2619;47.868;11.892;2024-03-06T14:19:01;3.80;99.90
5200;DHT22;2619;47.868;11.892;2024-03-06T14:21:26;3.70;99.90
5200;DHT22;2619;47.868;11.892;2024-03-06T14:23:52;3.70;99.90
5200;DHT22;2619;47.868;11.892;2024-03-06T14:26:18;3.60;99.90
5200;DHT22;2619;47.868;11.892;2024-03-06T14:28:43;3.60;99.90
5200;DHT22;2619;47.868;11.892;2024-03-06T14:31:09;3.60;99.90
5200;DHT22;2619;47.868;11.892;2024-03-06T14:33:37;3.70;99.90
5200;DHT22;2619;47.868;11.892;2024-03-06T14:36:03;3.70;99.90
5200;DHT22;2619;47.868;11.892;2024-03-06T14:38:28;3.70;99.90
5200;DHT22;2619;47.868;11.892;2024-03-06T14:40:54;3.70;99.90
5200;DHT22;2619;47.868;11.892;2024-03-06T14:43:20;3.70;99.90
5200;DHT22;2619;47.868;11.892;2024-03-06T14:45:46;3.70;99.90
5200;DHT22;2619;47.868;11.892;2024-03-06T14:48:11;3.70;99.90
5200;DHT22;2619;47.868;11.892;2024-03-06T14:50:37;3.70;99.90
5200;DHT22;2619;47.868;11.892;2024-03-06T14:53:03;3.60;99.90
5200;DHT22;2619;47.868;11.892;2024-03-06T14:55:28;3.70;99.90
5200;DHT22;2619;47.868;11.892;2024-03-06T14:57:54;3.70;99.90
5200;DHT22;2619;47.868;11.892;2024-03-06T15:00:19;3.70;99.90
5200;DHT22;2619;47.868;11.892;2024-03-06T15:02:48;3.80;99.90
5200;DHT22;2619;47.868;11.892;2024-03-06T15:05:14;3.70;99.90
5200;DHT22;2619;47.868;11.892;2024-03-06T15:07:40;3.80;99.90
5200;DHT22;2619;47.868;11.892;2024-03-06T15:10:06;3.80;99.90
5200;DHT22;2619;47.868;11.892;2024-03-06T15:12:33;3.70;99.90
5200;DHT22;2619;47.868;11.892;2024-03-06T15:15:01;3.70;99.90
5200;DHT22;2619;47.868;11.892;2024-03-06T15:17:28;3.60;99.90
5200;DHT22;2619;47.868;11.892;2024-03-06T15:19:53;3.60;99.90
5200;DHT22;2619;47.868;11.892;2024-03-06T15:22:19;3.50;99.90
5200;DHT22;2619;47.868;11.892;2024-03-06T15:24:45;3.50;99.90
5200;DHT22;2619;47.868;11.892;2024-03-06T15:27:11;3.60;99.90
5200;DHT22;2619;47.868;11.892;2024-03-06T15:29:37;3.60;99.90
5200;DHT22;2619;47.868;11.892;2024-03-06T15:32:03;3.70;99.90
5200;DHT22;2619;47.868;11.892;2024-03-06T15:34:29;3.70;99.90
5200;DHT22;2619;47.868;11.892;2024-03-06T15:36:55;3.70;99.90
5200;DHT22;2619;47.868;11.892;2024-03-06T15:39:20;3.70;99.90
5200;DHT22;2619;47.868;11.892;2024-03-06T15:41:47;3.70;99.90
5200;DHT22;2619;47.868;11.892;2024-03-06T15:44:12;3.60;99.90
5200;DHT22;2619;47.868;11.892;2024-03-06T15:46:38;3.60;99.90
5200;DHT22;2619;47.868;11.892;2024-03-06T15:49:07;3.60;99.90
5200;DHT22;2619;47.868;11.892;2024-03-06T15:51:32;3.70;99.90
5200;DHT22;2619;47.868;11.892;2024-03-06T15:53:58;3.80;99.90
5200;DHT22;2619;47.868;11.892;2024-03-06T15:56:24;3.90;99.90
5200;DHT22;2619;47.868;11.892;2024-03-06T15:58:49;3.80;99.90
5200;DHT22;2619;47.868;11.892;2024-03-06T16:01:15;3.70;99.90
5200;DHT22;2619;47.868;11.892;2024-03-06T16:03:41;3.70;99.90